sensor_id;sensor_type;location;lat;lon;timestamp;P1;durP1;ratioP1;P2;durP2;ratioP2
63320;SDS011;49449;48.800;9.534;2024-01-06T00:02:08;4.93;;;3.95;;
63320;SDS011;49449;48.800;9.534;2024-01-06T00:04:36;5.75;;;4.20;;
63320;SDS011;49449;48.800;9.534;2024-01-06T00:07:05;5.45;;;4.35;;
63320;SDS011;49449;48.800;9.534;2024-01-06T00:09:33;8.15;;;5.03;;
63320;SDS011;49449;48.800;9.534;2024-01-06T00:12:00;5.38;;;3.90;;
63320;SDS011;49449;48.800;9.534;2024-01-06T00:14:28;5.68;;;4.03;;
63320;SDS011;49449;48.800;9.534;2024-01-06T00:16:56;6.15;;;4.05;;
63320;SDS011;49449;48.800;9.534;2024-01-06T00:19:24;4.88;;;3.72;;
63320;SDS011;49449;48.800;9.534;2024-01-06T00:21:52;4.57;;;3.40;;
63320;SDS011;49449;48.800;9.534;2024-01-06T00:24:21;6.38;;;3.35;;
63320;SDS011;49449;48.800;9.534;2024-01-06T00:26:49;3.75;;;3.35;;
63320;SDS011;49449;48.800;9.534;2024-01-06T00:29:16;8.68;;;3.40;;
63320;SDS011;49449;48.800;9.534;2024-01-06T00:31:44;3.63;;;3.20;;
63320;SDS011;49449;48.800;9.534;2024-01-06T00:34:12;6.57;;;3.55;;
63320;SDS011;49449;48.800;9.534;2024-01-06T00:36:40;5.65;;;3.20;;
63320;SDS011;49449;48.800;9.534;2024-01-06T00:39:07;7.20;;;3.33;;
63320;SDS011;49449;48.800;9.534;2024-01-06T00:41:37;5.18;;;3.50;;
63320;SDS011;49449;48.800;9.534;2024-01-06T00:44:04;4.20;;;3.22;;
63320;SDS011;49449;48.800;9.534;2024-01-06T00:46:32;4.60;;;3.25;;
63320;SDS011;49449;48.800;9.534;2024-01-06T00:49:00;5.22;;;3.28;;
63320;SDS011;49449;48.800;9.534;2024-01-06T00:51:28;5.28;;;3.17;;
63320;SDS011;49449;48.800;9.534;2024-01-06T00:53:55;5.85;;;3.33;;
63320;SDS011;49449;48.800;9.534;2024-01-06T00:56:23;4.30;;;3.03;;
63320;SDS011;49449;48.800;9.534;2024-01-06T00:58:54;3.67;;;2.92;;
63320;SDS011;49449;48.800;9.534;2024-01-06T01:01:22;5.05;;;3.10;;
63320;SDS011;49449;48.800;9.534;2024-01-06T01:03:50;4.95;;;2.83;;
63320;SDS011;49449;48.800;9.534;2024-01-06T01:06:18;5.18;;;2.72;;
63320;SDS011;49449;48.800;9.534;2024-01-06T01:08:45;4.68;;;3.25;;
63320;SDS011;49449;48.800;9.534;2024-01-06T01:11:13;4.82;;;3.03;;
63320;SDS011;49449;48.800;9.534;2024-01-06T01:13:41;4.25;;;3.13;;
63320;SDS011;49449;48.800;9.534;2024-01-06T01:16:10;4.13;;;2.80;;
63320;SDS011;49449;48.800;9.534;2024-01-06T01:18:38;5.95;;;3.03;;
63320;SDS011;49449;48.800;9.534;2024-01-06T01:21:06;4.30;;;3.08;;
63320;SDS011;49449;48.800;9.534;2024-01-06T01:23:34;6.13;;;3.78;;
63320;SDS011;49449;48.800;9.534;2024-01-06T01:26:02;5.68;;;3.88;;
63320;SDS011;49449;48.800;9.534;2024-01-06T01:28:30;4.22;;;2.75;;
63320;SDS011;49449;48.800;9.534;2024-01-06T01:30:58;4.10;;;2.80;;
63320;SDS011;49449;48.800;9.534;2024-01-06T01:33:27;3.50;;;2.85;;
63320;SDS011;49449;48.800;9.534;2024-01-06T01:35:55;3.78;;;2.60;;
63320;SDS011;49449;48.800;9.534;2024-01-06T01:38:24;4.78;;;2.80;;
63320;SDS011;49449;48.800;9.534;2024-01-06T01:40:51;4.40;;;2.50;;
63320;SDS011;49449;48.800;9.534;2024-01-06T01:43:19;5.00;;;2.83;;
63320;SDS011;49449;48.800;9.534;2024-01-06T01:45:49;3.92;;;2.95;;
63320;SDS011;49449;48.800;9.534;2024-01-06T01:50:48;4.47;;;2.70;;
63320;SDS011;49449;48.800;9.534;2024-01-06T01:53:16;3.38;;;2.70;;
63320;SDS011;49449;48.800;9.534;2024-01-06T01:55:44;3.22;;;2.47;;
63320;SDS011;49449;48.800;9.534;2024-01-06T01:58:14;3.13;;;2.70;;
63320;SDS011;49449;48.800;9.534;2024-01-06T02:00:43;3.92;;;2.83;;
63320;SDS011;49449;48.800;9.534;2024-01-06T02:03:11;5.63;;;2.88;;
63320;SDS011;49449;48.800;9.534;2024-01-06T02:05:41;5.50;;;2.90;;
63320;SDS011;49449;48.800;9.534;2024-01-06T02:08:10;3.22;;;2.80;;
63320;SDS011;49449;48.800;9.534;2024-01-06T02:10:38;4.60;;;2.72;;
63320;SDS011;49449;48.800;9.534;2024-01-06T02:13:09;2.88;;;2.30;;
63320;SDS011;49449;48.800;9.534;2024-01-06T02:15:37;4.72;;;2.75;;
63320;SDS011;49449;48.800;9.534;2024-01-06T02:18:05;3.53;;;2.70;;
63320;SDS011;49449;48.800;9.534;2024-01-06T02:20:34;3.15;;;2.50;;
63320;SDS011;49449;48.800;9.534;2024-01-06T02:23:03;4.07;;;2.33;;
63320;SDS011;49449;48.800;9.534;2024-01-06T02:25:31;3.25;;;2.42;;
63320;SDS011;49449;48.800;9.534;2024-01-06T02:27:59;3.55;;;2.45;;
63320;SDS011;49449;48.800;9.534;2024-01-06T02:30:27;4.15;;;2.45;;
63320;SDS011;49449;48.800;9.534;2024-01-06T02:32:55;4.65;;;2.50;;
63320;SDS011;49449;48.800;9.534;2024-01-06T02:35:23;4.18;;;2.50;;
63320;SDS011;49449;48.800;9.534;2024-01-06T02:37:51;4.32;;;2.72;;
63320;SDS011;49449;48.800;9.534;2024-01-06T02:40:20;4.43;;;2.40;;
63320;SDS011;49449;48.800;9.534;2024-01-06T02:42:47;3.97;;;2.58;;
63320;SDS011;49449;48.800;9.534;2024-01-06T02:45:15;3.58;;;2.30;;
63320;SDS011;49449;48.800;9.534;2024-01-06T02:47:43;2.80;;;2.20;;
63320;SDS011;49449;48.800;9.534;2024-01-06T02:50:11;3.35;;;2.40;;
63320;SDS011;49449;48.800;9.534;2024-01-06T02:52:38;4.18;;;2.47;;
63320;SDS011;49449;48.800;9.534;2024-01-06T02:55:06;2.70;;;1.80;;
63320;SDS011;49449;48.800;9.534;2024-01-06T02:57:37;4.90;;;2.20;;
63320;SDS011;49449;48.800;9.534;2024-01-06T03:00:05;2.95;;;2.10;;
63320;SDS011;49449;48.800;9.534;2024-01-06T03:02:34;5.70;;;2.75;;
63320;SDS011;49449;48.800;9.534;2024-01-06T03:05:04;3.42;;;2.20;;
63320;SDS011;49449;48.800;9.534;2024-01-06T03:07:32;4.03;;;2.08;;
63320;SDS011;49449;48.800;9.534;2024-01-06T03:10:00;3.42;;;2.17;;
63320;SDS011;49449;48.800;9.534;2024-01-06T03:12:28;4.55;;;2.28;;
63320;SDS011;49449;48.800;9.534;2024-01-06T03:14:57;3.58;;;2.33;;
63320;SDS011;49449;48.800;9.534;2024-01-06T03:17:25;3.03;;;2.20;;
63320;SDS011;49449;48.800;9.534;2024-01-06T03:19:55;2.20;;;2.00;;
63320;SDS011;49449;48.800;9.534;2024-01-06T03:22:22;2.15;;;1.90;;
63320;SDS011;49449;48.800;9.534;2024-01-06T03:24:50;3.78;;;1.67;;
63320;SDS011;49449;48.800;9.534;2024-01-06T03:27:18;2.83;;;1.90;;
63320;SDS011;49449;48.800;9.534;2024-01-06T03:29:46;3.28;;;1.60;;
63320;SDS011;49449;48.800;9.534;2024-01-06T03:32:15;5.63;;;2.40;;
63320;SDS011;49449;48.800;9.534;2024-01-06T03:34:43;3.47;;;2.30;;
63320;SDS011;49449;48.800;9.534;2024-01-06T03:37:11;2.92;;;2.58;;
63320;SDS011;49449;48.800;9.534;2024-01-06T03:39:39;5.40;;;2.50;;
63320;SDS011;49449;48.800;9.534;2024-01-06T03:42:06;2.63;;;2.33;;
63320;SDS011;49449;48.800;9.534;2024-01-06T03:44:34;3.45;;;2.00;;
63320;SDS011;49449;48.800;9.534;2024-01-06T03:47:02;4.50;;;2.58;;
63320;SDS011;49449;48.800;9.534;2024-01-06T03:49:31;4.68;;;2.90;;
63320;SDS011;49449;48.800;9.534;2024-01-06T03:51:59;3.10;;;2.45;;
63320;SDS011;49449;48.800;9.534;2024-01-06T03:54:27;3.00;;;2.53;;
63320;SDS011;49449;48.800;9.534;2024-01-06T03:56:55;3.45;;;2.42;;
63320;SDS011;49449;48.800;9.534;2024-01-06T03:59:22;3.63;;;2.70;;
63320;SDS011;49449;48.800;9.534;2024-01-06T04:01:49;5.35;;;2.80;;
63320;SDS011;49449;48.800;9.534;2024-01-06T04:04:17;3.28;;;2.53;;
63320;SDS011;49449;48.800;9.534;2024-01-06T04:06:46;3.42;;;2.65;;
63320;SDS011;49449;48.800;9.534;2024-01-06T04:09:14;4.60;;;2.67;;
63320;SDS011;49449;48.800;9.534;2024-01-06T04:11:43;2.83;;;2.47;;
63320;SDS011;49449;48.800;9.534;2024-01-06T04:14:11;3.65;;;2.28;;
63320;SDS011;49449;48.800;9.534;2024-01-06T04:16:39;4.95;;;2.60;;
63320;SDS011;49449;48.800;9.534;2024-01-06T04:19:07;4.45;;;2.63;;
63320;SDS011;49449;48.800;9.534;2024-01-06T04:21:35;3.75;;;2.25;;
63320;SDS011;49449;48.800;9.534;2024-01-06T04:24:04;3.72;;;2.47;;
63320;SDS011;49449;48.800;9.534;2024-01-06T04:26:32;5.20;;;2.00;;
63320;SDS011;49449;48.800;9.534;2024-01-06T04:29:00;3.90;;;2.10;;
63320;SDS011;49449;48.800;9.534;2024-01-06T04:31:28;2.85;;;1.80;;
63320;SDS011;49449;48.800;9.534;2024-01-06T04:33:56;4.43;;;1.98;;
63320;SDS011;49449;48.800;9.534;2024-01-06T04:36:23;2.92;;;1.73;;
63320;SDS011;49449;48.800;9.534;2024-01-06T04:38:51;3.75;;;1.67;;
63320;SDS011;49449;48.800;9.534;2024-01-06T04:41:19;2.35;;;1.40;;
63320;SDS011;49449;48.800;9.534;2024-01-06T04:43:47;4.18;;;1.70;;
63320;SDS011;49449;48.800;9.534;2024-01-06T04:46:15;2.15;;;1.77;;
63320;SDS011;49449;48.800;9.534;2024-01-06T04:48:43;3.90;;;1.60;;
63320;SDS011;49449;48.800;9.534;2024-01-06T04:51:11;4.55;;;1.98;;
63320;SDS011;49449;48.800;9.534;2024-01-06T04:53:39;2.30;;;1.48;;
63320;SDS011;49449;48.800;9.534;2024-01-06T04:56:07;2.28;;;1.67;;
63320;SDS011;49449;48.800;9.534;2024-01-06T04:58:36;3.78;;;1.83;;
63320;SDS011;49449;48.800;9.534;2024-01-06T05:01:04;3.45;;;1.95;;
63320;SDS011;49449;48.800;9.534;2024-01-06T05:03:32;2.17;;;1.77;;
63320;SDS011;49449;48.800;9.534;2024-01-06T05:06:00;5.93;;;2.80;;
63320;SDS011;49449;48.800;9.534;2024-01-06T05:08:28;6.03;;;2.65;;
63320;SDS011;49449;48.800;9.534;2024-01-06T05:10:57;3.65;;;2.17;;
63320;SDS011;49449;48.800;9.534;2024-01-06T05:13:25;5.50;;;2.55;;
63320;SDS011;49449;48.800;9.534;2024-01-06T05:15:54;6.28;;;2.83;;
63320;SDS011;49449;48.800;9.534;2024-01-06T05:18:22;5.22;;;2.13;;
63320;SDS011;49449;48.800;9.534;2024-01-06T05:20:49;4.38;;;2.15;;
63320;SDS011;49449;48.800;9.534;2024-01-06T05:23:17;5.45;;;2.10;;
63320;SDS011;49449;48.800;9.534;2024-01-06T05:25:45;3.53;;;2.30;;
63320;SDS011;49449;48.800;9.534;2024-01-06T05:28:13;3.92;;;1.90;;
63320;SDS011;49449;48.800;9.534;2024-01-06T05:30:40;6.20;;;2.10;;
63320;SDS011;49449;48.800;9.534;2024-01-06T05:33:10;4.97;;;2.10;;
63320;SDS011;49449;48.800;9.534;2024-01-06T05:35:39;4.10;;;2.17;;
63320;SDS011;49449;48.800;9.534;2024-01-06T05:38:07;4.95;;;2.30;;
63320;SDS011;49449;48.800;9.534;2024-01-06T05:40:35;3.75;;;2.00;;
63320;SDS011;49449;48.800;9.534;2024-01-06T05:43:03;3.17;;;1.98;;
63320;SDS011;49449;48.800;9.534;2024-01-06T05:45:31;2.78;;;2.58;;
63320;SDS011;49449;48.800;9.534;2024-01-06T05:47:59;4.05;;;2.25;;
63320;SDS011;49449;48.800;9.534;2024-01-06T05:50:29;4.05;;;1.98;;
63320;SDS011;49449;48.800;9.534;2024-01-06T05:52:56;1.73;;;1.63;;
63320;SDS011;49449;48.800;9.534;2024-01-06T05:55:24;3.80;;;1.95;;
63320;SDS011;49449;48.800;9.534;2024-01-06T05:57:52;4.13;;;2.00;;
63320;SDS011;49449;48.800;9.534;2024-01-06T06:00:20;2.88;;;1.77;;
63320;SDS011;49449;48.800;9.534;2024-01-06T06:02:47;1.95;;;1.83;;
63320;SDS011;49449;48.800;9.534;2024-01-06T06:05:16;4.00;;;1.90;;
63320;SDS011;49449;48.800;9.534;2024-01-06T06:07:46;3.05;;;1.80;;
63320;SDS011;49449;48.800;9.534;2024-01-06T06:10:13;5.15;;;2.08;;
63320;SDS011;49449;48.800;9.534;2024-01-06T06:12:44;3.85;;;1.70;;
63320;SDS011;49449;48.800;9.534;2024-01-06T06:15:12;2.47;;;1.90;;
63320;SDS011;49449;48.800;9.534;2024-01-06T06:17:40;1.80;;;1.45;;
63320;SDS011;49449;48.800;9.534;2024-01-06T06:20:08;3.03;;;1.70;;
63320;SDS011;49449;48.800;9.534;2024-01-06T06:22:37;3.17;;;1.77;;
63320;SDS011;49449;48.800;9.534;2024-01-06T06:25:06;2.75;;;1.65;;
63320;SDS011;49449;48.800;9.534;2024-01-06T06:27:34;3.97;;;1.85;;
63320;SDS011;49449;48.800;9.534;2024-01-06T06:30:04;2.88;;;1.83;;
63320;SDS011;49449;48.800;9.534;2024-01-06T06:32:32;2.10;;;1.50;;
63320;SDS011;49449;48.800;9.534;2024-01-06T06:35:00;2.92;;;2.08;;
63320;SDS011;49449;48.800;9.534;2024-01-06T06:37:29;2.45;;;1.98;;
63320;SDS011;49449;48.800;9.534;2024-01-06T06:39:56;2.25;;;1.70;;
63320;SDS011;49449;48.800;9.534;2024-01-06T06:42:26;3.22;;;2.15;;
63320;SDS011;49449;48.800;9.534;2024-01-06T06:44:53;1.90;;;1.70;;
63320;SDS011;49449;48.800;9.534;2024-01-06T06:47:22;2.22;;;1.88;;
63320;SDS011;49449;48.800;9.534;2024-01-06T06:49:49;3.55;;;2.35;;
63320;SDS011;49449;48.800;9.534;2024-01-06T06:52:17;3.22;;;1.63;;
63320;SDS011;49449;48.800;9.534;2024-01-06T06:54:45;2.28;;;1.85;;
63320;SDS011;49449;48.800;9.534;2024-01-06T06:57:15;2.55;;;1.60;;
63320;SDS011;49449;48.800;9.534;2024-01-06T06:59:44;1.77;;;1.55;;
63320;SDS011;49449;48.800;9.534;2024-01-06T07:02:14;2.78;;;1.90;;
63320;SDS011;49449;48.800;9.534;2024-01-06T07:04:41;2.88;;;1.58;;
63320;SDS011;49449;48.800;9.534;2024-01-06T07:07:09;3.80;;;1.70;;
63320;SDS011;49449;48.800;9.534;2024-01-06T07:09:37;3.85;;;1.63;;
63320;SDS011;49449;48.800;9.534;2024-01-06T07:12:05;2.70;;;1.77;;
63320;SDS011;49449;48.800;9.534;2024-01-06T07:14:33;3.63;;;2.05;;
63320;SDS011;49449;48.800;9.534;2024-01-06T07:17:03;2.45;;;1.90;;
63320;SDS011;49449;48.800;9.534;2024-01-06T07:19:31;3.40;;;2.05;;
63320;SDS011;49449;48.800;9.534;2024-01-06T07:22:00;2.83;;;1.85;;
63320;SDS011;49449;48.800;9.534;2024-01-06T07:24:28;2.50;;;1.70;;
63320;SDS011;49449;48.800;9.534;2024-01-06T07:26:56;3.85;;;2.20;;
63320;SDS011;49449;48.800;9.534;2024-01-06T07:29:24;3.95;;;1.75;;
63320;SDS011;49449;48.800;9.534;2024-01-06T07:31:52;2.75;;;1.77;;
63320;SDS011;49449;48.800;9.534;2024-01-06T07:34:21;4.10;;;1.67;;
63320;SDS011;49449;48.800;9.534;2024-01-06T07:36:49;2.75;;;1.90;;
63320;SDS011;49449;48.800;9.534;2024-01-06T07:39:17;4.25;;;2.13;;
63320;SDS011;49449;48.800;9.534;2024-01-06T07:41:45;5.82;;;3.88;;
63320;SDS011;49449;48.800;9.534;2024-01-06T07:44:12;6.90;;;5.53;;
63320;SDS011;49449;48.800;9.534;2024-01-06T07:46:42;6.30;;;4.60;;
63320;SDS011;49449;48.800;9.534;2024-01-06T07:49:10;5.82;;;4.10;;
63320;SDS011;49449;48.800;9.534;2024-01-06T07:51:39;5.63;;;4.13;;
63320;SDS011;49449;48.800;9.534;2024-01-06T07:54:08;6.45;;;4.00;;
63320;SDS011;49449;48.800;9.534;2024-01-06T07:56:36;6.53;;;3.60;;
63320;SDS011;49449;48.800;9.534;2024-01-06T07:59:04;5.20;;;3.85;;
63320;SDS011;49449;48.800;9.534;2024-01-06T08:01:32;7.05;;;5.13;;
63320;SDS011;49449;48.800;9.534;2024-01-06T08:03:59;4.88;;;2.78;;
63320;SDS011;49449;48.800;9.534;2024-01-06T08:06:27;5.10;;;3.20;;
63320;SDS011;49449;48.800;9.534;2024-01-06T08:08:57;3.25;;;2.53;;
63320;SDS011;49449;48.800;9.534;2024-01-06T08:11:24;3.78;;;2.25;;
63320;SDS011;49449;48.800;9.534;2024-01-06T08:13:52;4.45;;;2.30;;
63320;SDS011;49449;48.800;9.534;2024-01-06T08:16:20;3.63;;;2.67;;
63320;SDS011;49449;48.800;9.534;2024-01-06T08:18:48;6.20;;;4.43;;
63320;SDS011;49449;48.800;9.534;2024-01-06T08:21:16;4.70;;;3.63;;
63320;SDS011;49449;48.800;9.534;2024-01-06T08:23:44;4.63;;;3.35;;
63320;SDS011;49449;48.800;9.534;2024-01-06T08:26:13;4.63;;;2.40;;
63320;SDS011;49449;48.800;9.534;2024-01-06T08:28:41;2.80;;;2.17;;
63320;SDS011;49449;48.800;9.534;2024-01-06T08:31:09;3.95;;;2.10;;
63320;SDS011;49449;48.800;9.534;2024-01-06T08:33:37;2.72;;;2.08;;
63320;SDS011;49449;48.800;9.534;2024-01-06T08:36:05;3.80;;;2.10;;
63320;SDS011;49449;48.800;9.534;2024-01-06T08:38:33;2.38;;;2.17;;
63320;SDS011;49449;48.800;9.534;2024-01-06T08:41:01;3.30;;;2.55;;
63320;SDS011;49449;48.800;9.534;2024-01-06T08:43:30;2.97;;;2.40;;
63320;SDS011;49449;48.800;9.534;2024-01-06T08:45:58;4.78;;;3.20;;
63320;SDS011;49449;48.800;9.534;2024-01-06T08:48:26;3.05;;;2.70;;
63320;SDS011;49449;48.800;9.534;2024-01-06T08:50:58;3.60;;;2.40;;
63320;SDS011;49449;48.800;9.534;2024-01-06T08:53:25;3.70;;;2.40;;
63320;SDS011;49449;48.800;9.534;2024-01-06T08:55:54;5.25;;;2.38;;
63320;SDS011;49449;48.800;9.534;2024-01-06T08:58:22;6.03;;;3.20;;
63320;SDS011;49449;48.800;9.534;2024-01-06T09:00:51;7.25;;;4.68;;
63320;SDS011;49449;48.800;9.534;2024-01-06T09:03:19;6.38;;;3.72;;
63320;SDS011;49449;48.800;9.534;2024-01-06T09:05:51;6.13;;;3.90;;
63320;SDS011;49449;48.800;9.534;2024-01-06T09:08:21;4.53;;;3.30;;
63320;SDS011;49449;48.800;9.534;2024-01-06T09:10:50;4.22;;;3.00;;
63320;SDS011;49449;48.800;9.534;2024-01-06T09:13:21;3.08;;;2.75;;
63320;SDS011;49449;48.800;9.534;2024-01-06T09:15:51;3.03;;;2.40;;
63320;SDS011;49449;48.800;9.534;2024-01-06T09:18:19;4.47;;;2.50;;
63320;SDS011;49449;48.800;9.534;2024-01-06T09:20:47;5.35;;;3.15;;
63320;SDS011;49449;48.800;9.534;2024-01-06T09:23:16;2.95;;;2.28;;
63320;SDS011;49449;48.800;9.534;2024-01-06T09:25:44;2.60;;;2.13;;
63320;SDS011;49449;48.800;9.534;2024-01-06T09:28:12;2.58;;;2.20;;
63320;SDS011;49449;48.800;9.534;2024-01-06T09:30:40;5.32;;;2.63;;
63320;SDS011;49449;48.800;9.534;2024-01-06T09:33:09;4.47;;;2.60;;
63320;SDS011;49449;48.800;9.534;2024-01-06T09:35:37;3.78;;;2.63;;
63320;SDS011;49449;48.800;9.534;2024-01-06T09:38:04;3.03;;;2.63;;
63320;SDS011;49449;48.800;9.534;2024-01-06T09:40:33;4.60;;;2.90;;
63320;SDS011;49449;48.800;9.534;2024-01-06T09:43:01;3.63;;;2.53;;
63320;SDS011;49449;48.800;9.534;2024-01-06T09:45:29;5.03;;;2.80;;
63320;SDS011;49449;48.800;9.534;2024-01-06T09:47:57;2.95;;;2.33;;
63320;SDS011;49449;48.800;9.534;2024-01-06T09:50:27;4.93;;;2.55;;
63320;SDS011;49449;48.800;9.534;2024-01-06T09:52:55;3.58;;;2.67;;
63320;SDS011;49449;48.800;9.534;2024-01-06T09:55:31;4.82;;;3.47;;
63320;SDS011;49449;48.800;9.534;2024-01-06T09:57:59;3.95;;;3.00;;
63320;SDS011;49449;48.800;9.534;2024-01-06T10:00:27;4.90;;;3.28;;
63320;SDS011;49449;48.800;9.534;2024-01-06T10:02:55;3.92;;;2.83;;
63320;SDS011;49449;48.800;9.534;2024-01-06T10:05:24;4.45;;;3.10;;
63320;SDS011;49449;48.800;9.534;2024-01-06T10:07:53;5.13;;;2.78;;
63320;SDS011;49449;48.800;9.534;2024-01-06T10:10:22;2.72;;;2.28;;
63320;SDS011;49449;48.800;9.534;2024-01-06T10:12:52;4.45;;;2.60;;
63320;SDS011;49449;48.800;9.534;2024-01-06T10:15:20;3.25;;;2.60;;
63320;SDS011;49449;48.800;9.534;2024-01-06T10:17:48;3.50;;;2.88;;
63320;SDS011;49449;48.800;9.534;2024-01-06T10:20:16;3.90;;;2.65;;
63320;SDS011;49449;48.800;9.534;2024-01-06T10:22:46;5.22;;;3.08;;
63320;SDS011;49449;48.800;9.534;2024-01-06T10:25:15;3.00;;;2.70;;
63320;SDS011;49449;48.800;9.534;2024-01-06T10:27:43;5.60;;;3.30;;
63320;SDS011;49449;48.800;9.534;2024-01-06T10:30:12;5.57;;;3.15;;
63320;SDS011;49449;48.800;9.534;2024-01-06T10:32:44;7.15;;;3.60;;
63320;SDS011;49449;48.800;9.534;2024-01-06T10:35:12;6.22;;;4.03;;
63320;SDS011;49449;48.800;9.534;2024-01-06T10:37:41;3.38;;;3.00;;
63320;SDS011;49449;48.800;9.534;2024-01-06T10:40:10;4.55;;;2.72;;
63320;SDS011;49449;48.800;9.534;2024-01-06T10:42:40;4.95;;;2.97;;
63320;SDS011;49449;48.800;9.534;2024-01-06T10:45:09;3.53;;;2.58;;
63320;SDS011;49449;48.800;9.534;2024-01-06T10:47:39;2.63;;;2.35;;
63320;SDS011;49449;48.800;9.534;2024-01-06T10:50:09;2.72;;;2.50;;
63320;SDS011;49449;48.800;9.534;2024-01-06T10:52:37;2.67;;;2.30;;
63320;SDS011;49449;48.800;9.534;2024-01-06T10:55:06;3.10;;;2.80;;
63320;SDS011;49449;48.800;9.534;2024-01-06T10:57:34;3.78;;;2.92;;
63320;SDS011;49449;48.800;9.534;2024-01-06T11:00:06;3.75;;;2.92;;
63320;SDS011;49449;48.800;9.534;2024-01-06T11:02:36;3.28;;;2.60;;
63320;SDS011;49449;48.800;9.534;2024-01-06T11:05:05;3.63;;;2.72;;
63320;SDS011;49449;48.800;9.534;2024-01-06T11:07:34;3.60;;;2.60;;
63320;SDS011;49449;48.800;9.534;2024-01-06T11:10:04;3.75;;;2.65;;
63320;SDS011;49449;48.800;9.534;2024-01-06T11:12:35;2.97;;;2.78;;
63320;SDS011;49449;48.800;9.534;2024-01-06T11:15:04;3.40;;;3.10;;
63320;SDS011;49449;48.800;9.534;2024-01-06T11:17:49;3.13;;;2.50;;
63320;SDS011;49449;48.800;9.534;2024-01-06T11:20:19;3.83;;;2.70;;
63320;SDS011;49449;48.800;9.534;2024-01-06T11:22:48;3.53;;;3.22;;
63320;SDS011;49449;48.800;9.534;2024-01-06T11:25:16;4.35;;;2.90;;
63320;SDS011;49449;48.800;9.534;2024-01-06T11:27:46;5.63;;;3.05;;
63320;SDS011;49449;48.800;9.534;2024-01-06T11:30:20;3.40;;;3.10;;
63320;SDS011;49449;48.800;9.534;2024-01-06T11:32:50;2.92;;;2.65;;
63320;SDS011;49449;48.800;9.534;2024-01-06T11:35:20;4.20;;;2.97;;
63320;SDS011;49449;48.800;9.534;2024-01-06T11:37:51;4.68;;;2.92;;
63320;SDS011;49449;48.800;9.534;2024-01-06T11:40:25;5.78;;;3.70;;
63320;SDS011;49449;48.800;9.534;2024-01-06T11:43:02;5.03;;;3.10;;
63320;SDS011;49449;48.800;9.534;2024-01-06T11:45:34;5.53;;;4.25;;
63320;SDS011;49449;48.800;9.534;2024-01-06T11:48:03;5.82;;;4.25;;
63320;SDS011;49449;48.800;9.534;2024-01-06T11:50:33;4.78;;;3.70;;
63320;SDS011;49449;48.800;9.534;2024-01-06T11:53:02;3.97;;;3.28;;
63320;SDS011;49449;48.800;9.534;2024-01-06T11:55:31;4.28;;;2.90;;
63320;SDS011;49449;48.800;9.534;2024-01-06T11:57:59;3.85;;;3.42;;
63320;SDS011;49449;48.800;9.534;2024-01-06T12:00:28;4.00;;;3.20;;
63320;SDS011;49449;48.800;9.534;2024-01-06T12:02:57;4.45;;;3.67;;
63320;SDS011;49449;48.800;9.534;2024-01-06T12:05:27;4.03;;;3.28;;
63320;SDS011;49449;48.800;9.534;2024-01-06T12:07:55;3.95;;;3.30;;
63320;SDS011;49449;48.800;9.534;2024-01-06T12:10:24;3.38;;;3.08;;
63320;SDS011;49449;48.800;9.534;2024-01-06T12:12:56;4.15;;;3.25;;
63320;SDS011;49449;48.800;9.534;2024-01-06T12:15:26;3.88;;;2.80;;
63320;SDS011;49449;48.800;9.534;2024-01-06T12:17:54;3.33;;;2.40;;
63320;SDS011;49449;48.800;9.534;2024-01-06T12:20:23;2.58;;;2.38;;
63320;SDS011;49449;48.800;9.534;2024-01-06T12:22:51;2.28;;;2.08;;
63320;SDS011;49449;48.800;9.534;2024-01-06T12:25:20;2.95;;;2.75;;
63320;SDS011;49449;48.800;9.534;2024-01-06T12:27:48;3.45;;;2.55;;
63320;SDS011;49449;48.800;9.534;2024-01-06T12:30:17;2.97;;;2.50;;
63320;SDS011;49449;48.800;9.534;2024-01-06T12:32:46;2.65;;;2.45;;
63320;SDS011;49449;48.800;9.534;2024-01-06T12:35:15;2.97;;;2.78;;
63320;SDS011;49449;48.800;9.534;2024-01-06T12:37:44;3.20;;;2.70;;
63320;SDS011;49449;48.800;9.534;2024-01-06T12:40:13;3.20;;;3.00;;
63320;SDS011;49449;48.800;9.534;2024-01-06T12:42:43;2.80;;;2.53;;
63320;SDS011;49449;48.800;9.534;2024-01-06T12:45:11;4.03;;;2.88;;
63320;SDS011;49449;48.800;9.534;2024-01-06T12:47:41;3.17;;;2.75;;
63320;SDS011;49449;48.800;9.534;2024-01-06T12:50:09;4.55;;;2.67;;
63320;SDS011;49449;48.800;9.534;2024-01-06T12:52:37;2.72;;;2.53;;
63320;SDS011;49449;48.800;9.534;2024-01-06T12:55:07;2.70;;;2.45;;
63320;SDS011;49449;48.800;9.534;2024-01-06T12:57:35;3.90;;;3.08;;
63320;SDS011;49449;48.800;9.534;2024-01-06T13:00:03;3.25;;;2.70;;
63320;SDS011;49449;48.800;9.534;2024-01-06T13:02:34;4.03;;;3.10;;
63320;SDS011;49449;48.800;9.534;2024-01-06T13:05:03;3.38;;;2.83;;
63320;SDS011;49449;48.800;9.534;2024-01-06T13:07:32;3.78;;;2.75;;
63320;SDS011;49449;48.800;9.534;2024-01-06T13:09:59;3.13;;;2.83;;
63320;SDS011;49449;48.800;9.534;2024-01-06T13:12:29;3.80;;;2.65;;
63320;SDS011;49449;48.800;9.534;2024-01-06T13:14:56;3.13;;;2.90;;
63320;SDS011;49449;48.800;9.534;2024-01-06T13:17:25;4.80;;;2.97;;
63320;SDS011;49449;48.800;9.534;2024-01-06T13:19:53;4.00;;;3.10;;
63320;SDS011;49449;48.800;9.534;2024-01-06T13:22:21;3.20;;;2.85;;
63320;SDS011;49449;48.800;9.534;2024-01-06T13:24:48;4.45;;;3.35;;
63320;SDS011;49449;48.800;9.534;2024-01-06T13:27:18;4.88;;;3.05;;
63320;SDS011;49449;48.800;9.534;2024-01-06T13:29:47;6.15;;;3.25;;
63320;SDS011;49449;48.800;9.534;2024-01-06T13:32:15;4.57;;;3.00;;
63320;SDS011;49449;48.800;9.534;2024-01-06T13:34:43;4.93;;;3.28;;
63320;SDS011;49449;48.800;9.534;2024-01-06T13:37:11;3.90;;;2.90;;
63320;SDS011;49449;48.800;9.534;2024-01-06T13:39:39;3.58;;;3.10;;
63320;SDS011;49449;48.800;9.534;2024-01-06T13:42:06;3.90;;;3.50;;
63320;SDS011;49449;48.800;9.534;2024-01-06T13:44:34;5.95;;;4.90;;
63320;SDS011;49449;48.800;9.534;2024-01-06T13:47:04;5.30;;;4.22;;
63320;SDS011;49449;48.800;9.534;2024-01-06T13:49:32;6.07;;;5.10;;
63320;SDS011;49449;48.800;9.534;2024-01-06T13:52:00;6.93;;;5.63;;
63320;SDS011;49449;48.800;9.534;2024-01-06T13:54:28;5.25;;;4.05;;
63320;SDS011;49449;48.800;9.534;2024-01-06T13:56:56;4.78;;;3.85;;
63320;SDS011;49449;48.800;9.534;2024-01-06T13:59:24;4.85;;;4.15;;
63320;SDS011;49449;48.800;9.534;2024-01-06T14:01:51;6.07;;;4.57;;
63320;SDS011;49449;48.800;9.534;2024-01-06T14:04:21;5.22;;;4.32;;
63320;SDS011;49449;48.800;9.534;2024-01-06T14:06:50;4.97;;;4.35;;
63320;SDS011;49449;48.800;9.534;2024-01-06T14:09:22;5.40;;;4.47;;
63320;SDS011;49449;48.800;9.534;2024-01-06T14:11:49;6.03;;;5.05;;
63320;SDS011;49449;48.800;9.534;2024-01-06T14:14:17;7.72;;;6.90;;
63320;SDS011;49449;48.800;9.534;2024-01-06T14:16:45;9.15;;;7.55;;
63320;SDS011;49449;48.800;9.534;2024-01-06T14:19:14;8.88;;;7.97;;
63320;SDS011;49449;48.800;9.534;2024-01-06T14:21:43;7.70;;;6.80;;
63320;SDS011;49449;48.800;9.534;2024-01-06T14:24:11;7.35;;;6.22;;
63320;SDS011;49449;48.800;9.534;2024-01-06T14:26:39;6.70;;;5.18;;
63320;SDS011;49449;48.800;9.534;2024-01-06T14:29:08;6.38;;;5.00;;
63320;SDS011;49449;48.800;9.534;2024-01-06T14:31:36;8.90;;;5.13;;
63320;SDS011;49449;48.800;9.534;2024-01-06T14:34:04;6.45;;;4.78;;
63320;SDS011;49449;48.800;9.534;2024-01-06T14:36:32;6.05;;;4.57;;
63320;SDS011;49449;48.800;9.534;2024-01-06T14:39:01;5.20;;;4.03;;
63320;SDS011;49449;48.800;9.534;2024-01-06T14:41:30;6.35;;;4.13;;
63320;SDS011;49449;48.800;9.534;2024-01-06T14:43:58;5.40;;;4.25;;
63320;SDS011;49449;48.800;9.534;2024-01-06T14:46:26;5.43;;;4.32;;
63320;SDS011;49449;48.800;9.534;2024-01-06T14:48:54;6.43;;;4.78;;
63320;SDS011;49449;48.800;9.534;2024-01-06T14:51:22;7.28;;;4.47;;
63320;SDS011;49449;48.800;9.534;2024-01-06T14:53:50;5.30;;;4.03;;
63320;SDS011;49449;48.800;9.534;2024-01-06T14:56:19;5.50;;;4.38;;
63320;SDS011;49449;48.800;9.534;2024-01-06T14:58:46;6.05;;;4.18;;